sensor_id;sensor_type;location;lat;lon;timestamp;temperature;humidity
3528;DHT22;1778;47.966;7.854;2022-11-20T00:00:32;7.10;99.90
3528;DHT22;1778;47.966;7.854;2022-11-20T00:01:33;7.10;99.90
3528;DHT22;1778;47.966;7.854;2022-11-20T00:02:35;7.10;99.90
3528;DHT22;1778;47.966;7.854;2022-11-20T00:03:37;7.10;99.90
3528;DHT22;1778;47.966;7.854;2022-11-20T00:04:38;7.10;99.90
3528;DHT22;1778;47.966;7.854;2022-11-20T00:05:41;7.10;99.90
3528;DHT22;1778;47.966;7.854;2022-11-20T00:06:42;7.10;99.90
3528;DHT22;1778;47.966;7.854;2022-11-20T00:07:44;7.10;99.90
3528;DHT22;1778;47.966;7.854;2022-11-20T00:08:45;7.10;99.90
3528;DHT22;1778;47.966;7.854;2022-11-20T00:09:47;7.10;99.90
3528;DHT22;1778;47.966;7.854;2022-11-20T00:10:48;7.10;99.90
3528;DHT22;1778;47.966;7.854;2022-11-20T00:11:50;7.10;99.90
3528;DHT22;1778;47.966;7.854;2022-11-20T00:12:52;7.10;99.90
3528;DHT22;1778;47.966;7.854;2022-11-20T00:13:55;7.10;99.90
3528;DHT22;1778;47.966;7.854;2022-11-20T00:14:58;7.20;99.90
3528;DHT22;1778;47.966;7.854;2022-11-20T00:16:02;7.10;99.90
3528;DHT22;1778;47.966;7.854;2022-11-20T00:17:03;7.10;99.90
3528;DHT22;1778;47.966;7.854;2022-11-20T00:18:05;7.10;99.90
3528;DHT22;1778;47.966;7.854;2022-11-20T00:19:06;7.10;99.90
3528;DHT22;1778;47.966;7.854;2022-11-20T00:20:09;7.10;99.90
3528;DHT22;1778;47.966;7.854;2022-11-20T00:21:13;7.10;99.90
3528;DHT22;1778;47.966;7.854;2022-11-20T00:22:15;7.10;99.90
3528;DHT22;1778;47.966;7.854;2022-11-20T00:23:16;7.00;99.90
3528;DHT22;1778;47.966;7.854;2022-11-20T00:24:18;7.00;99.90
3528;DHT22;1778;47.966;7.854;2022-11-20T00:25:19;7.10;99.90
3528;DHT22;1778;47.966;7.854;2022-11-20T00:26:22;7.10;99.90
3528;DHT22;1778;47.966;7.854;2022-11-20T00:27:24;7.10;99.90
3528;DHT22;1778;47.966;7.854;2022-11-20T00:28:25;7.00;99.90
3528;DHT22;1778;47.966;7.854;2022-11-20T00:29:27;7.10;99.90
3528;DHT22;1778;47.966;7.854;2022-11-20T00:30:28;7.10;99.90
3528;DHT22;1778;47.966;7.854;2022-11-20T00:31:30;7.10;99.90
3528;DHT22;1778;47.966;7.854;2022-11-20T00:32:32;7.10;99.90
3528;DHT22;1778;47.966;7.854;2022-11-20T00:33:33;7.10;99.90
3528;DHT22;1778;47.966;7.854;2022-11-20T00:34:35;7.10;99.90
3528;DHT22;1778;47.966;7.854;2022-11-20T00:35:36;7.10;99.90
3528;DHT22;1778;47.966;7.854;2022-11-20T00:36:38;7.00;99.90
3528;DHT22;1778;47.966;7.854;2022-11-20T00:37:40;7.10;99.90
3528;DHT22;1778;47.966;7.854;2022-11-20T00:38:42;7.10;99.90
3528;DHT22;1778;47.966;7.854;2022-11-20T00:39:44;7.10;99.90
3528;DHT22;1778;47.966;7.854;2022-11-20T00:40:45;7.10;99.90
3528;DHT22;1778;47.966;7.854;2022-11-20T00:41:52;7.10;99.90
3528;DHT22;1778;47.966;7.854;2022-11-20T00:42:54;7.00;99.90
3528;DHT22;1778;47.966;7.854;2022-11-20T00:43:56;7.00;99.90
3528;DHT22;1778;47.966;7.854;2022-11-20T00:44:57;7.10;99.90
3528;DHT22;1778;47.966;7.854;2022-11-20T00:46:00;7.10;99.90
3528;DHT22;1778;47.966;7.854;2022-11-20T00:47:02;7.10;99.90
3528;DHT22;1778;47.966;7.854;2022-11-20T00:48:04;7.10;99.90
3528;DHT22;1778;47.966;7.854;2022-11-20T00:49:05;7.10;99.90
3528;DHT22;1778;47.966;7.854;2022-11-20T00:50:07;7.00;99.90
3528;DHT22;1778;47.966;7.854;2022-11-20T00:51:11;7.00;99.90
3528;DHT22;1778;47.966;7.854;2022-11-20T00:52:13;7.10;99.90
3528;DHT22;1778;47.966;7.854;2022-11-20T00:53:15;7.10;99.90
3528;DHT22;1778;47.966;7.854;2022-11-20T00:54:16;7.00;99.90
3528;DHT22;1778;47.966;7.854;2022-11-20T00:55:18;7.00;99.90
3528;DHT22;1778;47.966;7.854;2022-11-20T00:56:19;7.10;99.90
3528;DHT22;1778;47.966;7.854;2022-11-20T00:57:21;7.10;99.90
3528;DHT22;1778;47.966;7.854;2022-11-20T00:58:24;7.00;99.90
3528;DHT22;1778;47.966;7.854;2022-11-20T00:59:27;7.00;99.90
3528;DHT22;1778;47.966;7.854;2022-11-20T01:00:28;7.00;99.90
3528;DHT22;1778;47.966;7.854;2022-11-20T01:01:30;7.00;99.90
3528;DHT22;1778;47.966;7.854;2022-11-20T01:02:31;7.00;99.90
3528;DHT22;1778;47.966;7.854;2022-11-20T01:03:34;7.00;99.90
3528;DHT22;1778;47.966;7.854;2022-11-20T01:04:36;7.00;99.90
3528;DHT22;1778;47.966;7.854;2022-11-20T01:05:38;7.00;99.90
3528;DHT22;1778;47.966;7.854;2022-11-20T01:06:39;7.00;99.90
3528;DHT22;1778;47.966;7.854;2022-11-20T01:07:41;7.10;99.90
3528;DHT22;1778;47.966;7.854;2022-11-20T01:08:44;7.00;99.90
3528;DHT22;1778;47.966;7.854;2022-11-20T01:09:46;7.00;99.90
3528;DHT22;1778;47.966;7.854;2022-11-20T01:10:47;7.00;99.90
3528;DHT22;1778;47.966;7.854;2022-11-20T01:11:49;7.00;99.90
3528;DHT22;1778;47.966;7.854;2022-11-20T01:12:50;7.00;99.90
3528;DHT22;1778;47.966;7.854;2022-11-20T01:14:15;7.00;99.90
3528;DHT22;1778;47.966;7.854;2022-11-20T01:15:17;7.00;99.90
3528;DHT22;1778;47.966;7.854;2022-11-20T01:17:22;7.00;99.90
3528;DHT22;1778;47.966;7.854;2022-11-20T01:18:23;7.00;99.90
3528;DHT22;1778;47.966;7.854;2022-11-20T01:19:25;7.00;99.90
3528;DHT22;1778;47.966;7.854;2022-11-20T01:20:26;7.00;99.90
3528;DHT22;1778;47.966;7.854;2022-11-20T01:21:30;7.00;99.90
3528;DHT22;1778;47.966;7.854;2022-11-20T01:22:32;7.00;99.90
3528;DHT22;1778;47.966;7.854;2022-11-20T01:23:36;7.00;99.90
3528;DHT22;1778;47.966;7.854;2022-11-20T01:24:37;7.10;99.90
3528;DHT22;1778;47.966;7.854;2022-11-20T01:25:39;7.00;99.90
3528;DHT22;1778;47.966;7.854;2022-11-20T01:26:42;7.10;99.90
3528;DHT22;1778;47.966;7.854;2022-11-20T01:27:45;7.10;99.90
3528;DHT22;1778;47.966;7.854;2022-11-20T01:28:47;7.10;99.90
3528;DHT22;1778;47.966;7.854;2022-11-20T01:29:48;7.10;99.90
3528;DHT22;1778;47.966;7.854;2022-11-20T01:30:50;7.10;99.90
3528;DHT22;1778;47.966;7.854;2022-11-20T01:31:52;7.10;99.90
3528;DHT22;1778;47.966;7.854;2022-11-20T01:32:55;7.10;99.90
3528;DHT22;1778;47.966;7.854;2022-11-20T01:33:58;7.10;99.90
3528;DHT22;1778;47.966;7.854;2022-11-20T01:35:00;7.10;99.90
3528;DHT22;1778;47.966;7.854;2022-11-20T01:36:05;7.10;99.90
3528;DHT22;1778;47.966;7.854;2022-11-20T01:37:07;7.10;99.90
3528;DHT22;1778;47.966;7.854;2022-11-20T01:38:08;7.10;99.90
3528;DHT22;1778;47.966;7.854;2022-11-20T01:39:21;7.10;99.90
3528;DHT22;1778;47.966;7.854;2022-11-20T01:40:24;7.00;99.90
3528;DHT22;1778;47.966;7.854;2022-11-20T01:41:27;7.00;99.90
3528;DHT22;1778;47.966;7.854;2022-11-20T01:42:53;7.00;99.90
3528;DHT22;1778;47.966;7.854;2022-11-20T01:44:18;7.00;99.90
3528;DHT22;1778;47.966;7.854;2022-11-20T01:45:48;7.00;99.90
3528;DHT22;1778;47.966;7.854;2022-11-20T01:47:00;6.90;99.90
3528;DHT22;1778;47.966;7.854;2022-11-20T01:48:03;7.00;99.90
3528;DHT22;1778;47.966;7.854;2022-11-20T01:50:21;7.00;99.90
3528;DHT22;1778;47.966;7.854;2022-11-20T01:51:48;7.10;99.90
3528;DHT22;1778;47.966;7.854;2022-11-20T01:52:55;7.10;99.90
3528;DHT22;1778;47.966;7.854;2022-11-20T01:54:01;7.00;99.90
3528;DHT22;1778;47.966;7.854;2022-11-20T01:55:07;7.00;99.90
3528;DHT22;1778;47.966;7.854;2022-11-20T01:56:12;7.00;99.90
3528;DHT22;1778;47.966;7.854;2022-11-20T01:57:15;7.00;99.90
3528;DHT22;1778;47.966;7.854;2022-11-20T01:58:21;7.10;99.90
3528;DHT22;1778;47.966;7.854;2022-11-20T01:59:24;7.10;99.90
3528;DHT22;1778;47.966;7.854;2022-11-20T02:00:26;7.00;99.90
3528;DHT22;1778;47.966;7.854;2022-11-20T02:01:28;7.00;99.90
3528;DHT22;1778;47.966;7.854;2022-11-20T02:02:30;7.00;99.90
3528;DHT22;1778;47.966;7.854;2022-11-20T02:03:32;7.00;99.90
3528;DHT22;1778;47.966;7.854;2022-11-20T02:04:34;7.00;99.90
3528;DHT22;1778;47.966;7.854;2022-11-20T02:06:11;7.00;99.90
3528;DHT22;1778;47.966;7.854;2022-11-20T02:07:13;7.10;99.90
3528;DHT22;1778;47.966;7.854;2022-11-20T02:08:15;7.10;99.90
3528;DHT22;1778;47.966;7.854;2022-11-20T02:09:18;7.00;99.90
3528;DHT22;1778;47.966;7.854;2022-11-20T02:10:20;7.00;99.90
3528;DHT22;1778;47.966;7.854;2022-11-20T02:11:22;7.00;99.90
3528;DHT22;1778;47.966;7.854;2022-11-20T02:12:23;7.00;99.90
3528;DHT22;1778;47.966;7.854;2022-11-20T02:13:44;7.00;99.90
3528;DHT22;1778;47.966;7.854;2022-11-20T02:14:46;7.00;99.90
3528;DHT22;1778;47.966;7.854;2022-11-20T02:15:48;6.90;99.90
3528;DHT22;1778;47.966;7.854;2022-11-20T02:16:51;7.00;99.90
3528;DHT22;1778;47.966;7.854;2022-11-20T02:17:53;7.10;99.90
3528;DHT22;1778;47.966;7.854;2022-11-20T02:18:57;7.00;99.90
3528;DHT22;1778;47.966;7.854;2022-11-20T02:19:59;6.90;99.90
3528;DHT22;1778;47.966;7.854;2022-11-20T02:22:28;7.10;99.90
3528;DHT22;1778;47.966;7.854;2022-11-20T02:23:38;7.00;99.90
3528;DHT22;1778;47.966;7.854;2022-11-20T02:24:41;7.00;99.90
3528;DHT22;1778;47.966;7.854;2022-11-20T02:25:46;7.00;99.90
3528;DHT22;1778;47.966;7.854;2022-11-20T02:26:54;7.00;99.90
3528;DHT22;1778;47.966;7.854;2022-11-20T02:27:57;7.00;99.90
3528;DHT22;1778;47.966;7.854;2022-11-20T02:28:59;7.00;99.90
3528;DHT22;1778;47.966;7.854;2022-11-20T02:30:04;7.00;99.90
3528;DHT22;1778;47.966;7.854;2022-11-20T02:31:06;7.00;99.90
3528;DHT22;1778;47.966;7.854;2022-11-20T02:32:23;7.00;99.90
3528;DHT22;1778;47.966;7.854;2022-11-20T02:33:25;7.10;99.90
3528;DHT22;1778;47.966;7.854;2022-11-20T02:34:26;7.00;99.90
3528;DHT22;1778;47.966;7.854;2022-11-20T02:36:30;7.10;99.90
3528;DHT22;1778;47.966;7.854;2022-11-20T02:37:37;7.00;99.90
3528;DHT22;1778;47.966;7.854;2022-11-20T02:38:41;7.10;99.90
3528;DHT22;1778;47.966;7.854;2022-11-20T02:39:46;7.00;99.90
3528;DHT22;1778;47.966;7.854;2022-11-20T02:40:48;7.00;99.90
3528;DHT22;1778;47.966;7.854;2022-11-20T02:41:56;7.00;99.90
3528;DHT22;1778;47.966;7.854;2022-11-20T02:42:58;7.00;99.90
3528;DHT22;1778;47.966;7.854;2022-11-20T02:44:00;7.00;99.90
3528;DHT22;1778;47.966;7.854;2022-11-20T02:45:01;7.00;99.90
3528;DHT22;1778;47.966;7.854;2022-11-20T02:46:03;7.00;99.90
3528;DHT22;1778;47.966;7.854;2022-11-20T02:47:07;7.00;99.90
3528;DHT22;1778;47.966;7.854;2022-11-20T02:48:09;7.00;99.90
3528;DHT22;1778;47.966;7.854;2022-11-20T02:49:11;7.00;99.90
3528;DHT22;1778;47.966;7.854;2022-11-20T02:50:12;7.00;99.90
3528;DHT22;1778;47.966;7.854;2022-11-20T02:51:14;7.10;99.90
3528;DHT22;1778;47.966;7.854;2022-11-20T02:52:15;7.00;99.90
3528;DHT22;1778;47.966;7.854;2022-11-20T02:53:17;7.10;99.90
3528;DHT22;1778;47.966;7.854;2022-11-20T02:54:18;7.10;99.90
3528;DHT22;1778;47.966;7.854;2022-11-20T02:55:20;7.20;99.90
3528;DHT22;1778;47.966;7.854;2022-11-20T02:56:21;7.20;99.90
3528;DHT22;1778;47.966;7.854;2022-11-20T02:57:23;7.20;99.90
3528;DHT22;1778;47.966;7.854;2022-11-20T02:58:25;7.20;99.90
3528;DHT22;1778;47.966;7.854;2022-11-20T02:59:26;7.20;99.90
3528;DHT22;1778;47.966;7.854;2022-11-20T03:00:28;7.20;99.90
3528;DHT22;1778;47.966;7.854;2022-11-20T03:01:30;7.10;99.90
3528;DHT22;1778;47.966;7.854;2022-11-20T03:02:32;7.20;99.90
3528;DHT22;1778;47.966;7.854;2022-11-20T03:03:34;7.20;99.90
3528;DHT22;1778;47.966;7.854;2022-11-20T03:04:36;7.10;99.90
3528;DHT22;1778;47.966;7.854;2022-11-20T03:05:38;7.20;99.90
3528;DHT22;1778;47.966;7.854;2022-11-20T03:06:39;7.20;99.90
3528;DHT22;1778;47.966;7.854;2022-11-20T03:07:42;7.20;99.90
3528;DHT22;1778;47.966;7.854;2022-11-20T03:08:44;7.10;99.90
3528;DHT22;1778;47.966;7.854;2022-11-20T03:09:46;7.10;99.90
3528;DHT22;1778;47.966;7.854;2022-11-20T03:10:47;7.00;99.90
3528;DHT22;1778;47.966;7.854;2022-11-20T03:11:49;7.10;99.90
3528;DHT22;1778;47.966;7.854;2022-11-20T03:12:56;7.10;99.90
3528;DHT22;1778;47.966;7.854;2022-11-20T03:13:57;7.10;99.90
3528;DHT22;1778;47.966;7.854;2022-11-20T03:15:02;7.10;99.90
3528;DHT22;1778;47.966;7.854;2022-11-20T03:16:06;7.00;99.90
3528;DHT22;1778;47.966;7.854;2022-11-20T03:17:08;7.00;99.90
3528;DHT22;1778;47.966;7.854;2022-11-20T03:18:10;7.00;99.90
3528;DHT22;1778;47.966;7.854;2022-11-20T03:19:12;7.00;99.90
3528;DHT22;1778;47.966;7.854;2022-11-20T03:20:14;7.00;99.90
3528;DHT22;1778;47.966;7.854;2022-11-20T03:21:16;7.00;99.90
3528;DHT22;1778;47.966;7.854;2022-11-20T03:22:18;7.10;99.90
3528;DHT22;1778;47.966;7.854;2022-11-20T03:23:19;7.00;99.90
3528;DHT22;1778;47.966;7.854;2022-11-20T03:24:21;6.90;99.90
3528;DHT22;1778;47.966;7.854;2022-11-20T03:25:22;7.00;99.90
3528;DHT22;1778;47.966;7.854;2022-11-20T03:26:26;7.10;99.90
3528;DHT22;1778;47.966;7.854;2022-11-20T03:27:32;7.10;99.90
3528;DHT22;1778;47.966;7.854;2022-11-20T03:28:35;7.10;99.90
3528;DHT22;1778;47.966;7.854;2022-11-20T03:29:37;7.10;99.90
3528;DHT22;1778;47.966;7.854;2022-11-20T03:30:40;7.20;99.90
3528;DHT22;1778;47.966;7.854;2022-11-20T03:31:42;7.20;99.90
3528;DHT22;1778;47.966;7.854;2022-11-20T03:32:43;7.20;99.90
3528;DHT22;1778;47.966;7.854;2022-11-20T03:33:45;7.30;99.90
3528;DHT22;1778;47.966;7.854;2022-11-20T03:34:47;7.30;99.90
3528;DHT22;1778;47.966;7.854;2022-11-20T03:35:48;7.30;99.90
3528;DHT22;1778;47.966;7.854;2022-11-20T03:36:49;7.30;99.90
3528;DHT22;1778;47.966;7.854;2022-11-20T03:37:51;7.30;99.90
3528;DHT22;1778;47.966;7.854;2022-11-20T03:38:54;7.30;99.90
3528;DHT22;1778;47.966;7.854;2022-11-20T03:39:56;7.30;99.90
3528;DHT22;1778;47.966;7.854;2022-11-20T03:41:03;7.40;99.90
3528;DHT22;1778;47.966;7.854;2022-11-20T03:42:05;7.40;99.90
3528;DHT22;1778;47.966;7.854;2022-11-20T03:43:27;7.40;99.90
3528;DHT22;1778;47.966;7.854;2022-11-20T03:44:29;7.30;99.90
3528;DHT22;1778;47.966;7.854;2022-11-20T03:45:31;7.30;99.90
3528;DHT22;1778;47.966;7.854;2022-11-20T03:46:32;7.30;99.90
3528;DHT22;1778;47.966;7.854;2022-11-20T03:47:34;7.40;99.90
3528;DHT22;1778;47.966;7.854;2022-11-20T03:48:35;7.30;99.90
3528;DHT22;1778;47.966;7.854;2022-11-20T03:49:37;7.30;99.90
3528;DHT22;1778;47.966;7.854;2022-11-20T03:50:38;7.40;99.90
3528;DHT22;1778;47.966;7.854;2022-11-20T03:51:40;7.40;99.90
3528;DHT22;1778;47.966;7.854;2022-11-20T03:52:42;7.40;99.90
3528;DHT22;1778;47.966;7.854;2022-11-20T03:53:45;7.40;99.90
3528;DHT22;1778;47.966;7.854;2022-11-20T03:54:46;7.40;99.90
3528;DHT22;1778;47.966;7.854;2022-11-20T03:55:51;7.30;99.90
3528;DHT22;1778;47.966;7.854;2022-11-20T03:56:53;7.40;99.90
3528;DHT22;1778;47.966;7.854;2022-11-20T03:57:54;7.40;99.90
3528;DHT22;1778;47.966;7.854;2022-11-20T03:58:56;7.40;99.90
3528;DHT22;1778;47.966;7.854;2022-11-20T03:59:58;7.40;99.90
3528;DHT22;1778;47.966;7.854;2022-11-20T04:01:05;7.40;99.90
3528;DHT22;1778;47.966;7.854;2022-11-20T04:02:07;7.40;99.90
3528;DHT22;1778;47.966;7.854;2022-11-20T04:03:09;7.40;99.90
3528;DHT22;1778;47.966;7.854;2022-11-20T04:04:10;7.40;99.90
3528;DHT22;1778;47.966;7.854;2022-11-20T04:05:12;7.40;99.90
3528;DHT22;1778;47.966;7.854;2022-11-20T04:06:19;7.30;99.90
3528;DHT22;1778;47.966;7.854;2022-11-20T04:07:20;7.30;99.90
3528;DHT22;1778;47.966;7.854;2022-11-20T04:08:22;7.40;99.90
3528;DHT22;1778;47.966;7.854;2022-11-20T04:09:23;7.30;99.90
3528;DHT22;1778;47.966;7.854;2022-11-20T04:10:25;7.40;99.90
3528;DHT22;1778;47.966;7.854;2022-11-20T04:11:31;7.30;99.90
3528;DHT22;1778;47.966;7.854;2022-11-20T04:12:33;7.30;99.90
3528;DHT22;1778;47.966;7.854;2022-11-20T04:13:35;7.30;99.90
3528;DHT22;1778;47.966;7.854;2022-11-20T04:14:36;7.30;99.90
3528;DHT22;1778;47.966;7.854;2022-11-20T04:15:38;7.30;99.90
3528;DHT22;1778;47.966;7.854;2022-11-20T04:16:39;7.40;99.90
3528;DHT22;1778;47.966;7.854;2022-11-20T04:17:41;7.40;99.90
3528;DHT22;1778;47.966;7.854;2022-11-20T04:18:43;7.40;99.90
3528;DHT22;1778;47.966;7.854;2022-11-20T04:19:44;7.40;99.90
3528;DHT22;1778;47.966;7.854;2022-11-20T04:20:45;7.40;99.90
3528;DHT22;1778;47.966;7.854;2022-11-20T04:21:47;7.40;99.90
3528;DHT22;1778;47.966;7.854;2022-11-20T04:22:49;7.40;99.90
3528;DHT22;1778;47.966;7.854;2022-11-20T04:23:51;7.40;99.90
3528;DHT22;1778;47.966;7.854;2022-11-20T04:24:54;7.40;99.90
3528;DHT22;1778;47.966;7.854;2022-11-20T04:26:07;7.50;99.90
3528;DHT22;1778;47.966;7.854;2022-11-20T04:27:09;7.50;99.90
3528;DHT22;1778;47.966;7.854;2022-11-20T04:28:10;7.60;99.90
3528;DHT22;1778;47.966;7.854;2022-11-20T04:29:12;7.50;99.90
3528;DHT22;1778;47.966;7.854;2022-11-20T04:30:14;7.50;99.90
3528;DHT22;1778;47.966;7.854;2022-11-20T04:31:19;7.50;99.90
3528;DHT22;1778;47.966;7.854;2022-11-20T04:32:20;7.50;99.90
3528;DHT22;1778;47.966;7.854;2022-11-20T04:33:22;7.50;99.90
3528;DHT22;1778;47.966;7.854;2022-11-20T04:34:23;7.40;99.90
3528;DHT22;1778;47.966;7.854;2022-11-20T04:35:25;7.50;99.90
3528;DHT22;1778;47.966;7.854;2022-11-20T04:36:27;7.50;99.90
3528;DHT22;1778;47.966;7.854;2022-11-20T04:37:29;7.60;99.90
3528;DHT22;1778;47.966;7.854;2022-11-20T04:38:31;7.50;99.90
3528;DHT22;1778;47.966;7.854;2022-11-20T04:39:33;7.50;99.90
3528;DHT22;1778;47.966;7.854;2022-11-20T04:40:34;7.50;99.90
3528;DHT22;1778;47.966;7.854;2022-11-20T04:41:36;7.50;99.90
3528;DHT22;1778;47.966;7.854;2022-11-20T04:42:38;7.50;99.90
3528;DHT22;1778;47.966;7.854;2022-11-20T04:43:39;7.50;99.90
3528;DHT22;1778;47.966;7.854;2022-11-20T04:44:41;7.50;99.90
3528;DHT22;1778;47.966;7.854;2022-11-20T04:45:42;7.40;99.90
3528;DHT22;1778;47.966;7.854;2022-11-20T04:46:44;7.40;99.90
3528;DHT22;1778;47.966;7.854;2022-11-20T04:47:45;7.40;99.90
3528;DHT22;1778;47.966;7.854;2022-11-20T04:48:47;7.40;99.90
3528;DHT22;1778;47.966;7.854;2022-11-20T04:49:49;7.50;99.90
3528;DHT22;1778;47.966;7.854;2022-11-20T04:50:51;7.50;99.90
3528;DHT22;1778;47.966;7.854;2022-11-20T04:51:55;7.50;99.90
3528;DHT22;1778;47.966;7.854;2022-11-20T04:52:57;7.50;99.90
3528;DHT22;1778;47.966;7.854;2022-11-20T04:53:59;7.50;99.90
3528;DHT22;1778;47.966;7.854;2022-11-20T04:55:01;7.50;99.90
3528;DHT22;1778;47.966;7.854;2022-11-20T04:56:04;7.50;99.90
3528;DHT22;1778;47.966;7.854;2022-11-20T04:57:06;7.50;99.90
3528;DHT22;1778;47.966;7.854;2022-11-20T04:58:16;7.50;99.90
3528;DHT22;1778;47.966;7.854;2022-11-20T04:59:18;7.40;99.90
3528;DHT22;1778;47.966;7.854;2022-11-20T05:00:20;7.40;99.90
3528;DHT22;1778;47.966;7.854;2022-11-20T05:01:23;7.40;99.90
3528;DHT22;1778;47.966;7.854;2022-11-20T05:02:25;7.40;99.90
3528;DHT22;1778;47.966;7.854;2022-11-20T05:03:27;7.40;99.90
3528;DHT22;1778;47.966;7.854;2022-11-20T05:04:28;7.50;99.90
3528;DHT22;1778;47.966;7.854;2022-11-20T05:05:30;7.50;99.90
3528;DHT22;1778;47.966;7.854;2022-11-20T05:06:32;7.50;99.90
3528;DHT22;1778;47.966;7.854;2022-11-20T05:07:34;7.50;99.90
3528;DHT22;1778;47.966;7.854;2022-11-20T05:08:35;7.40;99.90
3528;DHT22;1778;47.966;7.854;2022-11-20T05:09:36;7.40;99.90
3528;DHT22;1778;47.966;7.854;2022-11-20T05:10:38;7.50;99.90
3528;DHT22;1778;47.966;7.854;2022-11-20T05:11:40;7.50;99.90
3528;DHT22;1778;47.966;7.854;2022-11-20T05:12:41;7.60;99.90
3528;DHT22;1778;47.966;7.854;2022-11-20T05:13:43;7.60;99.90
3528;DHT22;1778;47.966;7.854;2022-11-20T05:14:45;7.60;99.90
3528;DHT22;1778;47.966;7.854;2022-11-20T05:15:46;7.50;99.90
3528;DHT22;1778;47.966;7.854;2022-11-20T05:16:48;7.50;99.90
3528;DHT22;1778;47.966;7.854;2022-11-20T05:17:51;7.50;99.90
3528;DHT22;1778;47.966;7.854;2022-11-20T05:18:53;7.50;99.90
3528;DHT22;1778;47.966;7.854;2022-11-20T05:19:55;7.60;99.90
3528;DHT22;1778;47.966;7.854;2022-11-20T05:20:58;7.60;99.90
3528;DHT22;1778;47.966;7.854;2022-11-20T05:21:59;7.60;99.90
3528;DHT22;1778;47.966;7.854;2022-11-20T05:23:01;7.60;99.90
3528;DHT22;1778;47.966;7.854;2022-11-20T05:24:03;7.60;99.90
3528;DHT22;1778;47.966;7.854;2022-11-20T05:25:05;7.60;99.90
3528;DHT22;1778;47.966;7.854;2022-11-20T05:26:08;7.50;99.90
3528;DHT22;1778;47.966;7.854;2022-11-20T05:27:12;7.50;99.90
3528;DHT22;1778;47.966;7.854;2022-11-20T05:28:14;7.50;99.90
3528;DHT22;1778;47.966;7.854;2022-11-20T05:29:16;7.50;99.90
3528;DHT22;1778;47.966;7.854;2022-11-20T05:30:17;7.50;99.90
3528;DHT22;1778;47.966;7.854;2022-11-20T05:31:24;7.50;99.90
3528;DHT22;1778;47.966;7.854;2022-11-20T05:32:28;7.50;99.90
3528;DHT22;1778;47.966;7.854;2022-11-20T05:33:30;7.50;99.90
3528;DHT22;1778;47.966;7.854;2022-11-20T05:34:32;7.50;99.90
3528;DHT22;1778;47.966;7.854;2022-11-20T05:35:33;7.50;99.90
3528;DHT22;1778;47.966;7.854;2022-11-20T05:36:35;7.50;99.90
3528;DHT22;1778;47.966;7.854;2022-11-20T05:37:36;7.50;99.90
3528;DHT22;1778;47.966;7.854;2022-11-20T05:38:38;7.60;99.90
3528;DHT22;1778;47.966;7.854;2022-11-20T05:39:40;7.50;99.90
3528;DHT22;1778;47.966;7.854;2022-11-20T05:40:42;7.50;99.90
3528;DHT22;1778;47.966;7.854;2022-11-20T05:41:43;7.60;99.90
3528;DHT22;1778;47.966;7.854;2022-11-20T05:42:44;7.50;99.90
3528;DHT22;1778;47.966;7.854;2022-11-20T05:43:47;7.60;99.90
3528;DHT22;1778;47.966;7.854;2022-11-20T05:44:49;7.60;99.90
3528;DHT22;1778;47.966;7.854;2022-11-20T05:45:53;7.70;99.90
3528;DHT22;1778;47.966;7.854;2022-11-20T05:46:55;7.70;99.90
3528;DHT22;1778;47.966;7.854;2022-11-20T05:48:00;7.70;99.90
3528;DHT22;1778;47.966;7.854;2022-11-20T05:49:01;7.70;99.90
3528;DHT22;1778;47.966;7.854;2022-11-20T05:50:03;7.70;99.90
3528;DHT22;1778;47.966;7.854;2022-11-20T05:51:07;7.60;99.90
3528;DHT22;1778;47.966;7.854;2022-11-20T05:52:09;7.60;99.90
3528;DHT22;1778;47.966;7.854;2022-11-20T05:53:11;7.60;99.90
3528;DHT22;1778;47.966;7.854;2022-11-20T05:54:12;7.70;99.90
3528;DHT22;1778;47.966;7.854;2022-11-20T05:55:14;7.70;99.90
3528;DHT22;1778;47.966;7.854;2022-11-20T05:56:18;7.60;99.90
3528;DHT22;1778;47.966;7.854;2022-11-20T05:57:20;7.60;99.90
3528;DHT22;1778;47.966;7.854;2022-11-20T05:58:21;7.60;99.90
3528;DHT22;1778;47.966;7.854;2022-11-20T05:59:23;7.60;99.90
3528;DHT22;1778;47.966;7.854;2022-11-20T06:00:24;7.60;99.90
3528;DHT22;1778;47.966;7.854;2022-11-20T06:01:26;7.60;99.90
3528;DHT22;1778;47.966;7.854;2022-11-20T06:02:27;7.50;99.90
3528;DHT22;1778;47.966;7.854;2022-11-20T06:03:29;7.60;99.90
3528;DHT22;1778;47.966;7.854;2022-11-20T06:04:30;7.50;99.90
3528;DHT22;1778;47.966;7.854;2022-11-20T06:05:33;7.60;99.90
3528;DHT22;1778;47.966;7.854;2022-11-20T06:06:35;7.60;99.90
3528;DHT22;1778;47.966;7.854;2022-11-20T06:07:36;7.60;99.90
3528;DHT22;1778;47.966;7.854;2022-11-20T06:08:38;7.70;99.90
3528;DHT22;1778;47.966;7.854;2022-11-20T06:09:40;7.70;99.90
3528;DHT22;1778;47.966;7.854;2022-11-20T06:10:41;7.60;99.90
3528;DHT22;1778;47.966;7.854;2022-11-20T06:11:43;7.60;99.90
3528;DHT22;1778;47.966;7.854;2022-11-20T06:12:45;7.80;99.90
3528;DHT22;1778;47.966;7.854;2022-11-20T06:13:48;7.70;99.90
3528;DHT22;1778;47.966;7.854;2022-11-20T06:14:50;7.70;99.90
3528;DHT22;1778;47.966;7.854;2022-11-20T06:15:52;7.70;99.90
3528;DHT22;1778;47.966;7.854;2022-11-20T06:16:54;7.70;99.90
3528;DHT22;1778;47.966;7.854;2022-11-20T06:17:56;7.70;99.90
3528;DHT22;1778;47.966;7.854;2022-11-20T06:18:57;7.60;99.90
3528;DHT22;1778;47.966;7.854;2022-11-20T06:19:59;7.60;99.90
3528;DHT22;1778;47.966;7.854;2022-11-20T06:21:05;7.60;99.90
3528;DHT22;1778;47.966;7.854;2022-11-20T06:22:07;7.50;99.90
3528;DHT22;1778;47.966;7.854;2022-11-20T06:23:08;7.50;99.90
3528;DHT22;1778;47.966;7.854;2022-11-20T06:24:10;7.60;99.90
3528;DHT22;1778;47.966;7.854;2022-11-20T06:25:12;7.60;99.90
3528;DHT22;1778;47.966;7.854;2022-11-20T06:26:19;7.60;99.90
3528;DHT22;1778;47.966;7.854;2022-11-20T06:27:21;7.60;99.90
3528;DHT22;1778;47.966;7.854;2022-11-20T06:28:23;7.60;99.90
3528;DHT22;1778;47.966;7.854;2022-11-20T06:29:24;7.70;99.90
3528;DHT22;1778;47.966;7.854;2022-11-20T06:30:33;7.70;99.90
3528;DHT22;1778;47.966;7.854;2022-11-20T06:31:35;7.80;99.90
3528;DHT22;1778;47.966;7.854;2022-11-20T06:32:39;7.70;99.90
3528;DHT22;1778;47.966;7.854;2022-11-20T06:33:41;7.70;99.90
3528;DHT22;1778;47.966;7.854;2022-11-20T06:34:43;7.70;99.90
3528;DHT22;1778;47.966;7.854;2022-11-20T06:35:44;7.60;99.90
3528;DHT22;1778;47.966;7.854;2022-11-20T06:36:46;7.60;99.90
3528;DHT22;1778;47.966;7.854;2022-11-20T06:37:47;7.70;99.90
3528;DHT22;1778;47.966;7.854;2022-11-20T06:38:49;7.60;99.90
3528;DHT22;1778;47.966;7.854;2022-11-20T06:39:51;7.70;99.90
3528;DHT22;1778;47.966;7.854;2022-11-20T06:40:53;7.70;99.90
3528;DHT22;1778;47.966;7.854;2022-11-20T06:41:55;7.70;99.90
3528;DHT22;1778;47.966;7.854;2022-11-20T06:42:59;7.80;99.90
3528;DHT22;1778;47.966;7.854;2022-11-20T06:44:04;7.80;99.90
3528;DHT22;1778;47.966;7.854;2022-11-20T06:45:06;7.80;99.90
3528;DHT22;1778;47.966;7.854;2022-11-20T06:46:09;7.70;99.90
3528;DHT22;1778;47.966;7.854;2022-11-20T06:47:11;7.70;99.90
3528;DHT22;1778;47.966;7.854;2022-11-20T06:48:12;7.70;99.90
3528;DHT22;1778;47.966;7.854;2022-11-20T06:49:14;7.70;99.90
3528;DHT22;1778;47.966;7.854;2022-11-20T06:50:15;7.60;99.90
3528;DHT22;1778;47.966;7.854;2022-11-20T06:51:17;7.60;99.90
3528;DHT22;1778;47.966;7.854;2022-11-20T06:52:19;7.60;99.90
3528;DHT22;1778;47.966;7.854;2022-11-20T06:53:22;7.60;99.90
3528;DHT22;1778;47.966;7.854;2022-11-20T06:54:23;7.70;99.90
3528;DHT22;1778;47.966;7.854;2022-11-20T06:55:25;7.60;99.90
3528;DHT22;1778;47.966;7.854;2022-11-20T06:56:26;7.70;99.90
3528;DHT22;1778;47.966;7.854;2022-11-20T06:57:28;7.70;99.90
3528;DHT22;1778;47.966;7.854;2022-11-20T06:58:31;7.70;99.90
3528;DHT22;1778;47.966;7.854;2022-11-20T06:59:32;7.70;99.90
3528;DHT22;1778;47.966;7.854;2022-11-20T07:00:34;7.80;99.90
3528;DHT22;1778;47.966;7.854;2022-11-20T07:01:35;7.80;99.90